Time;durP1;ratioP1;P1;durP2;ratioP2;P2;SDS_P1;SDS_P2;PMS_P1;PMS_P2;Temp;Humidity;BMP_temperature;BMP_pressure;BME280_temperature;BME280_humidity;BME280_pressure;Samples;Min_cycle;Max_cycle;Signal;HPM_P1;HPM_P2
2021/01/29 00:02:13;;;;;;;5.50;4.03;;;1.50;99.90;;;;;;5005121;28;20234;-86
2021/01/29 00:04:40;;;;;;;6.77;3.83;;;1.40;99.90;;;;;;5006253;28;20173;-86
2021/01/29 00:07:07;;;;;;;5.47;3.50;;;1.30;99.90;;;;;;5004138;28;20575;-85
2021/01/29 00:09:34;;;;;;;6.80;4.00;;;1.30;99.90;;;;;;5005117;28;20431;-85
2021/01/29 00:12:00;;;;;;;8.10;3.93;;;1.30;99.90;;;;;;5004433;28;20487;-86
2021/01/29 00:14:25;;;;;;;6.63;3.90;;;1.20;99.90;;;;;;5002840;28;20898;-85
2021/01/29 00:16:51;;;;;;;9.80;4.00;;;1.20;99.90;;;;;;4999042;28;20226;-86
2021/01/29 00:19:17;;;;;;;6.67;4.33;;;1.20;99.90;;;;;;4996476;28;20184;-86
2021/01/29 00:21:42;;;;;;;6.50;3.87;;;1.20;99.90;;;;;;5013107;28;20182;-86
2021/01/29 00:24:08;;;;;;;5.93;3.80;;;1.20;99.90;;;;;;5012445;28;20177;-87
2021/01/29 00:26:34;;;;;;;7.07;4.77;;;1.20;99.90;;;;;;5010619;28;20226;-86
2021/01/29 00:28:59;;;;;;;10.00;5.50;;;1.20;99.90;;;;;;5025170;28;20175;-85
2021/01/29 00:31:25;;;;;;;16.70;6.97;;;1.10;99.90;;;;;;5014902;28;20177;-86
2021/01/29 00:33:50;;;;;;;7.93;6.07;;;1.00;99.90;;;;;;5028319;28;20176;-86
2021/01/29 00:36:16;;;;;;;6.50;5.87;;;1.00;99.90;;;;;;5003319;28;20172;-86
2021/01/29 00:38:41;;;;;;;6.87;5.20;;;1.00;99.90;;;;;;4995261;28;20185;-86
2021/01/29 00:41:07;;;;;;;10.93;5.70;;;1.00;99.90;;;;;;5005501;28;20171;-85
2021/01/29 00:43:33;;;;;;;5.80;4.60;;;0.90;99.90;;;;;;5005976;28;20177;-86
2021/01/29 00:45:58;;;;;;;5.23;4.10;;;1.00;99.90;;;;;;5016355;28;20522;-87
2021/01/29 00:48:24;;;;;;;8.83;6.00;;;1.00;99.90;;;;;;5008846;28;20271;-86
2021/01/29 00:50:49;;;;;;;5.73;4.70;;;1.10;99.90;;;;;;4997590;28;20195;-86
2021/01/29 00:53:15;;;;;;;8.73;5.47;;;1.10;99.90;;;;;;5005512;28;20529;-87
2021/01/29 00:55:40;;;;;;;5.53;4.70;;;1.20;99.90;;;;;;5009438;28;20168;-86
2021/01/29 00:58:06;;;;;;;9.93;3.80;;;1.30;99.90;;;;;;5016754;28;20183;-86
2021/01/29 01:00:31;;;;;;;10.47;4.67;;;1.30;99.90;;;;;;5017336;28;20180;-86
2021/01/29 01:02:57;;;;;;;7.97;5.33;;;1.30;99.90;;;;;;5001777;28;20710;-86
2021/01/29 01:05:24;;;;;;;7.80;4.60;;;1.30;99.90;;;;;;5002512;28;20256;-86
2021/01/29 01:07:50;;;;;;;6.43;5.23;;;1.30;99.90;;;;;;5006278;28;20204;-86
2021/01/29 01:10:18;;;;;;;7.93;4.77;;;1.40;99.90;;;;;;5018841;28;20434;-86
2021/01/29 01:12:44;;;;;;;7.53;4.40;;;1.40;99.90;;;;;;5004807;28;20430;-86
2021/01/29 01:15:23;;;;;;;8.70;4.23;;;1.30;99.90;;;;;;5003072;28;20417;-86
2021/01/29 01:17:51;;;;;;;8.73;4.43;;;1.40;99.90;;;;;;5004010;28;20176;-86
2021/01/29 01:20:21;;;;;;;4.70;4.03;;;1.40;99.90;;;;;;5004023;28;20905;-86
2021/01/29 01:22:46;;;;;;;5.87;4.50;;;1.40;99.90;;;;;;5004142;28;20783;-86
2021/01/29 01:25:13;;;;;;;5.17;4.67;;;1.30;99.90;;;;;;5004708;28;20423;-85
2021/01/29 01:27:39;;;;;;;5.37;4.27;;;1.40;99.90;;;;;;5001579;28;20227;-86
2021/01/29 01:30:07;;;;;;;8.03;4.97;;;1.40;99.90;;;;;;5003393;28;20426;-86
2021/01/29 01:32:32;;;;;;;6.30;3.83;;;1.40;99.90;;;;;;5002478;28;20536;-86
2021/01/29 01:34:58;;;;;;;6.27;5.00;;;1.40;99.90;;;;;;5002402;28;20415;-86
2021/01/29 01:37:23;;;;;;;7.07;4.23;;;1.40;99.90;;;;;;5002212;28;20242;-87
2021/01/29 01:39:49;;;;;;;4.90;3.10;;;1.40;99.90;;;;;;5005749;28;20177;-86
2021/01/29 01:42:15;;;;;;;4.77;3.30;;;1.40;99.90;;;;;;5013520;28;20302;-87
2021/01/29 01:44:43;;;;;;;6.70;3.40;;;1.30;99.90;;;;;;5006275;28;20189;-87
2021/01/29 01:47:23;;;;;;;4.63;3.70;;;1.30;99.90;;;;;;5007052;28;20227;-86
2021/01/29 01:49:55;;;;;;;6.90;3.43;;;1.30;99.90;;;;;;5025704;28;20415;-86
2021/01/29 01:52:37;;;;;;;4.63;2.77;;;1.30;99.90;;;;;;5006972;28;20784;-88
2021/01/29 01:55:08;;;;;;;4.17;3.30;;;1.20;99.90;;;;;;5004709;28;20435;-87
2021/01/29 01:57:36;;;;;;;4.23;3.10;;;1.20;99.90;;;;;;5010940;28;20558;-87
2021/01/29 02:00:08;;;;;;;5.07;3.07;;;1.20;99.90;;;;;;5013575;28;20431;-88
2021/01/29 02:02:36;;;;;;;3.27;2.97;;;1.20;99.90;;;;;;5013717;28;20434;-86
2021/01/29 02:05:09;;;;;;;4.20;2.90;;;1.20;99.90;;;;;;5014841;28;20418;-86
2021/01/29 02:07:35;;;;;;;3.13;2.37;;;1.20;99.90;;;;;;5013366;28;20991;-86
2021/01/29 02:10:03;;;;;;;3.00;1.77;;;1.10;99.90;;;;;;5014441;28;20422;-86
2021/01/29 02:12:28;;;;;;;3.40;2.30;;;1.10;99.90;;;;;;5012731;28;20188;-86
2021/01/29 02:14:54;;;;;;;3.53;2.20;;;1.10;99.90;;;;;;5013292;28;20427;-86
2021/01/29 02:17:58;;;;;;;3.90;2.50;;;1.10;99.90;;;;;;5013431;28;20195;-86
2021/01/29 02:20:52;;;;;;;4.33;3.23;;;1.10;99.90;;;;;;5014560;28;20171;-86
2021/01/29 02:23:17;;;;;;;2.53;1.70;;;1.00;99.90;;;;;;5015166;28;20406;-86
2021/01/29 02:26:05;;;;;;;7.63;3.33;;;1.00;99.90;;;;;;5014856;28;20795;-85
2021/01/29 02:29:04;;;;;;;3.70;3.20;;;1.00;99.90;;;;;;5015026;28;20188;-85
2021/01/29 02:31:36;;;;;;;2.97;2.13;;;0.90;99.90;;;;;;5014007;28;20499;-85
2021/01/29 02:34:15;;;;;;;7.67;3.50;;;1.00;99.90;;;;;;5014043;28;20433;-85
2021/01/29 02:37:12;;;;;;;2.70;2.47;;;0.90;99.90;;;;;;5013106;28;20768;-86
2021/01/29 02:39:40;;;;;;;4.80;2.80;;;0.90;99.90;;;;;;5012905;28;20425;-86
2021/01/29 02:42:14;;;;;;;5.30;2.70;;;0.90;99.90;;;;;;5012429;28;20414;-86
2021/01/29 02:44:58;;;;;;;3.37;2.87;;;1.00;99.90;;;;;;5012875;28;20433;-86
2021/01/29 02:47:29;;;;;;;5.03;2.37;;;1.00;99.90;;;;;;5013694;28;20549;-85
2021/01/29 02:50:24;;;;;;;3.93;3.20;;;1.10;99.90;;;;;;5012329;28;20450;-86
2021/01/29 02:53:07;;;;;;;3.10;2.80;;;1.20;99.90;;;;;;5012433;28;20431;-85
2021/01/29 02:55:38;;;;;;;7.10;3.50;;;1.20;99.90;;;;;;5012106;28;20414;-85
2021/01/29 02:58:14;;;;;;;4.37;3.40;;;1.20;99.90;;;;;;5013043;28;20419;-86
2021/01/29 03:00:46;;;;;;;7.73;2.83;;;1.10;99.90;;;;;;5011697;28;20435;-86
2021/01/29 03:03:24;;;;;;;9.67;2.73;;;1.10;99.90;;;;;;5013502;28;20447;-86
2021/01/29 03:06:08;;;;;;;4.70;2.90;;;1.10;99.90;;;;;;5013566;28;20740;-86
2021/01/29 03:08:46;;;;;;;3.97;3.07;;;1.00;99.90;;;;;;4994030;28;20424;-86
2021/01/29 03:11:28;;;;;;;4.57;2.60;;;1.00;99.90;;;;;;5021469;28;20764;-86
2021/01/29 03:14:11;;;;;;;7.60;3.57;;;1.00;99.90;;;;;;5001809;28;20899;-85
2021/01/29 03:17:18;;;;;;;5.67;3.13;;;0.90;99.90;;;;;;4999700;28;20459;-86
2021/01/29 03:19:54;;;;;;;2.53;2.00;;;0.90;99.90;;;;;;4971368;28;20436;-86
2021/01/29 03:22:27;;;;;;;4.27;2.60;;;0.90;99.90;;;;;;5000664;28;20419;-85
2021/01/29 03:25:30;;;;;;;5.50;3.40;;;0.90;99.90;;;;;;5001506;28;20416;-86
2021/01/29 03:28:19;;;;;;;7.00;2.57;;;0.90;99.90;;;;;;4999805;28;20604;-86
2021/01/29 03:30:48;;;;;;;2.70;2.47;;;0.80;99.90;;;;;;4996416;28;20420;-86
2021/01/29 03:33:16;;;;;;;2.57;2.13;;;0.90;99.90;;;;;;4997347;28;20454;-86
2021/01/29 03:35:50;;;;;;;2.83;2.13;;;0.90;99.90;;;;;;4993842;28;20421;-87
2021/01/29 03:38:25;;;;;;;4.70;1.77;;;0.80;99.90;;;;;;4992733;28;20446;-87
2021/01/29 03:41:19;;;;;;;5.50;2.40;;;0.80;99.90;;;;;;4992646;28;21390;-87
2021/01/29 03:44:13;;;;;;;6.40;3.33;;;0.80;99.90;;;;;;4993400;28;20775;-87
2021/01/29 03:46:59;;;;;;;6.03;2.93;;;0.80;99.90;;;;;;4992714;28;20454;-87
2021/01/29 03:49:53;;;;;;;4.20;2.43;;;0.80;99.90;;;;;;4994180;28;20434;-87
2021/01/29 03:52:27;;;;;;;4.40;2.13;;;0.80;99.90;;;;;;4994882;28;20454;-87
2021/01/29 03:55:07;;;;;;;5.77;2.97;;;0.90;99.90;;;;;;4996498;28;20411;-87
2021/01/29 03:57:41;;;;;;;4.67;2.93;;;0.90;99.90;;;;;;4995422;28;20470;-88
2021/01/29 04:00:29;;;;;;;4.40;3.23;;;0.90;99.90;;;;;;4994014;28;20749;-87
2021/01/29 04:03:09;;;;;;;2.77;2.37;;;0.90;99.90;;;;;;4994020;28;20405;-86
2021/01/29 04:06:04;;;;;;;2.97;2.17;;;0.90;99.90;;;;;;4993915;28;20890;-87
2021/01/29 04:08:54;;;;;;;2.43;2.00;;;0.90;99.90;;;;;;4992750;28;20453;-87
2021/01/29 04:11:27;;;;;;;4.17;2.40;;;0.90;99.90;;;;;;4993241;28;20523;-86
2021/01/29 04:13:59;;;;;;;3.27;2.83;;;0.90;99.90;;;;;;4997303;28;20517;-86
2021/01/29 04:16:36;;;;;;;2.77;2.43;;;0.90;99.90;;;;;;5011564;28;21003;-86
2021/01/29 04:19:08;;;;;;;2.20;1.80;;;0.90;99.90;;;;;;5015181;28;20434;-86
2021/01/29 04:21:46;;;;;;;2.80;2.13;;;0.90;99.90;;;;;;5015343;28;20407;-86
2021/01/29 04:24:26;;;;;;;3.30;2.77;;;0.90;99.90;;;;;;5016485;28;20446;-85
2021/01/29 04:27:10;;;;;;;2.30;1.77;;;0.90;99.90;;;;;;5015662;28;20482;-86
2021/01/29 04:30:21;;;;;;;2.23;1.57;;;1.00;99.90;;;;;;5015177;28;20418;-85
2021/01/29 04:32:51;;;;;;;2.20;1.83;;;1.00;99.90;;;;;;4978418;28;20415;-86
2021/01/29 04:35:21;;;;;;;2.50;1.37;;;0.90;99.90;;;;;;5012417;28;20967;-85
2021/01/29 04:38:08;;;;;;;2.00;1.37;;;0.90;99.90;;;;;;5014935;28;20410;-85
2021/01/29 04:40:56;;;;;;;4.47;1.83;;;0.90;99.90;;;;;;5014994;28;20782;-85
2021/01/29 04:43:57;;;;;;;1.77;1.30;;;0.90;99.90;;;;;;5014390;28;20838;-85
2021/01/29 04:46:39;;;;;;;3.60;1.37;;;0.90;99.90;;;;;;5014693;28;21039;-85
2021/01/29 04:49:36;;;;;;;2.13;1.00;;;0.80;99.90;;;;;;5014728;28;20485;-86
2021/01/29 04:52:36;;;;;;;5.60;1.80;;;0.90;99.90;;;;;;5015953;28;20427;-85
2021/01/29 04:55:43;;;;;;;2.00;1.70;;;0.90;99.90;;;;;;5003959;28;20488;-85
2021/01/29 04:58:17;;;;;;;3.57;1.50;;;0.90;99.90;;;;;;5014272;28;20931;-85
2021/01/29 05:01:22;;;;;;;4.73;1.37;;;0.90;99.90;;;;;;5014434;28;20404;-85
2021/01/29 05:04:05;;;;;;;2.03;1.67;;;0.90;99.90;;;;;;5014505;28;20892;-85
2021/01/29 05:07:05;;;;;;;3.33;2.17;;;0.80;99.90;;;;;;5014336;28;20459;-85
2021/01/29 05:09:47;;;;;;;1.70;1.20;;;0.80;99.90;;;;;;4993369;28;20431;-85
2021/01/29 05:12:31;;;;;;;3.43;1.70;;;0.90;99.90;;;;;;5015508;28;20525;-85
2021/01/29 05:15:25;;;;;;;1.70;1.37;;;0.80;99.90;;;;;;5015670;28;20405;-86
2021/01/29 05:18:23;;;;;;;1.27;1.10;;;0.80;99.90;;;;;;5016007;28;20740;-85
2021/01/29 05:21:12;;;;;;;1.07;0.70;;;0.80;99.90;;;;;;5012328;28;20431;-85
2021/01/29 05:24:23;;;;;;;4.93;1.53;;;0.70;99.90;;;;;;5016339;28;20409;-85
2021/01/29 05:27:08;;;;;;;3.33;1.03;;;0.70;99.90;;;;;;5014346;28;20489;-86
2021/01/29 05:29:45;;;;;;;4.90;0.97;;;0.70;99.90;;;;;;5013868;28;20419;-84
2021/01/29 05:32:42;;;;;;;6.20;2.83;;;0.70;99.90;;;;;;5015073;28;20502;-84
2021/01/29 05:35:16;;;;;;;1.53;1.07;;;0.70;99.90;;;;;;5013853;28;20534;-84
2021/01/29 05:38:19;;;;;;;2.60;1.53;;;0.70;99.90;;;;;;5015071;28;20814;-84
2021/01/29 05:41:11;;;;;;;4.73;1.33;;;0.60;99.90;;;;;;5013598;28;20782;-84
2021/01/29 05:43:42;;;;;;;5.30;1.27;;;0.60;99.90;;;;;;5014802;28;20849;-84
2021/01/29 05:46:31;;;;;;;2.10;1.50;;;0.60;99.90;;;;;;5013451;28;20524;-84
2021/01/29 05:49:42;;;;;;;3.50;1.13;;;0.60;99.90;;;;;;5013497;28;20435;-85
2021/01/29 05:52:16;;;;;;;3.60;1.50;;;0.60;99.90;;;;;;4998149;28;20427;-84
2021/01/29 05:54:57;;;;;;;2.87;0.90;;;0.70;99.90;;;;;;5014660;28;20488;-85
2021/01/29 05:57:50;;;;;;;1.67;1.33;;;0.70;99.90;;;;;;5013152;28;20454;-85
2021/01/29 06:00:55;;;;;;;1.37;1.27;;;0.70;99.90;;;;;;5013392;28;20431;-85
2021/01/29 06:03:48;;;;;;;1.60;1.03;;;0.80;99.90;;;;;;4994638;28;20429;-84
2021/01/29 06:06:44;;;;;;;10.07;1.60;;;0.70;99.90;;;;;;4993613;28;20504;-84
2021/01/29 06:09:24;;;;;;;5.10;2.00;;;0.70;99.90;;;;;;4994956;28;20408;-84
2021/01/29 06:12:02;;;;;;;3.33;1.47;;;0.60;99.90;;;;;;4994246;28;20494;-84
2021/01/29 06:14:45;;;;;;;2.80;0.93;;;0.60;99.90;;;;;;4994630;28;20413;-84
2021/01/29 06:17:32;;;;;;;3.10;1.00;;;0.60;99.90;;;;;;4994830;28;20409;-85
2021/01/29 06:20:19;;;;;;;5.40;1.03;;;0.60;99.90;;;;;;4993296;28;20990;-85
2021/01/29 06:23:09;;;;;;;3.97;2.10;;;0.60;99.90;;;;;;4993375;28;20420;-85
2021/01/29 06:25:37;;;;;;;2.13;1.93;;;0.60;99.90;;;;;;5003868;28;20415;-85
2021/01/29 06:28:36;;;;;;;2.37;0.87;;;0.60;99.90;;;;;;5012940;28;20487;-86
2021/01/29 06:31:33;;;;;;;4.00;1.67;;;0.60;99.90;;;;;;5021847;28;20430;-85
2021/01/29 06:34:58;;;;;;;4.70;0.87;;;0.60;99.90;;;;;;5013146;28;20595;-85
2021/01/29 06:37:29;;;;;;;6.87;1.30;;;0.60;99.90;;;;;;4998604;28;20423;-86
2021/01/29 06:40:12;;;;;;;3.50;1.30;;;0.50;99.90;;;;;;5012587;28;20472;-84
2021/01/29 06:42:52;;;;;;;3.13;1.40;;;0.50;99.90;;;;;;5012397;28;20484;-84
2021/01/29 06:45:27;;;;;;;3.47;1.27;;;0.60;99.90;;;;;;5012623;28;20439;-85
2021/01/29 06:48:41;;;;;;;4.23;1.60;;;0.60;99.90;;;;;;5012923;28;20473;-85
2021/01/29 06:51:27;;;;;;;3.40;1.50;;;0.60;99.90;;;;;;5014547;28;20417;-85
2021/01/29 06:54:02;;;;;;;3.50;1.27;;;0.60;99.90;;;;;;5014237;28;20415;-85
2021/01/29 06:56:27;;;;;;;7.30;1.50;;;0.60;99.90;;;;;;5012150;28;20782;-85
2021/01/29 06:59:30;;;;;;;2.03;1.43;;;0.60;99.90;;;;;;5012244;28;20426;-85
2021/01/29 07:02:26;;;;;;;1.10;0.90;;;0.70;99.90;;;;;;5012492;28;20729;-84
2021/01/29 07:05:32;;;;;;;2.77;1.23;;;0.60;99.90;;;;;;5012452;28;20422;-86
2021/01/29 07:08:16;;;;;;;3.90;1.60;;;0.60;99.90;;;;;;5012197;28;20475;-85
2021/01/29 07:11:33;;;;;;;1.40;1.13;;;0.70;99.90;;;;;;5012249;28;20427;-85
2021/01/29 07:14:30;;;;;;;2.47;1.37;;;0.60;99.90;;;;;;4990981;28;20417;-85
2021/01/29 07:17:19;;;;;;;1.60;1.50;;;0.60;99.90;;;;;;5012276;28;20418;-85
2021/01/29 07:20:06;;;;;;;5.97;1.33;;;0.60;99.90;;;;;;5012192;28;20427;-86
2021/01/29 07:22:52;;;;;;;2.60;1.00;;;0.60;99.90;;;;;;5012299;28;20447;-86
2021/01/29 07:25:46;;;;;;;6.20;1.50;;;0.70;99.90;;;;;;5012234;28;20429;-87
2021/01/29 07:28:53;;;;;;;3.30;1.03;;;0.60;99.90;;;;;;4986920;28;20537;-86
2021/01/29 07:31:43;;;;;;;2.80;0.97;;;0.60;99.90;;;;;;5012167;28;20429;-85
2021/01/29 07:34:27;;;;;;;2.40;0.73;;;0.60;99.90;;;;;;5012174;28;20485;-86
2021/01/29 07:37:19;;;;;;;1.73;0.87;;;0.60;99.90;;;;;;5012111;28;20433;-85
2021/01/29 07:40:03;;;;;;;3.50;1.20;;;0.60;99.90;;;;;;5011988;28;20461;-85
2021/01/29 07:43:06;;;;;;;1.60;0.40;;;0.60;99.90;;;;;;5013065;28;20428;-85
2021/01/29 07:45:34;;;;;;;3.43;1.13;;;0.60;99.90;;;;;;5013253;28;20406;-85
2021/01/29 07:48:42;;;;;;;6.03;1.03;;;0.70;99.90;;;;;;5014665;28;20517;-85
2021/01/29 07:51:25;;;;;;;5.10;1.10;;;0.70;99.90;;;;;;5017062;28;20505;-86
2021/01/29 07:54:22;;;;;;;5.00;1.37;;;0.60;99.90;;;;;;5017050;28;20438;-85
2021/01/29 07:57:05;;;;;;;0.70;0.70;;;0.70;99.90;;;;;;5015439;28;20429;-86
2021/01/29 07:59:50;;;;;;;2.00;1.30;;;0.70;99.90;;;;;;5015830;28;20437;-86
2021/01/29 08:02:47;;;;;;;0.70;0.60;;;0.70;99.90;;;;;;5015601;28;20910;-85
2021/01/29 08:05:47;;;;;;;2.73;1.60;;;0.80;99.90;;;;;;5002482;28;20438;-86
2021/01/29 08:08:22;;;;;;;1.43;0.30;;;0.80;99.90;;;;;;5016548;28;20965;-86
2021/01/29 08:10:54;;;;;;;0.93;0.60;;;0.80;99.90;;;;;;5011144;28;20841;-86
2021/01/29 08:13:40;;;;;;;2.70;1.70;;;0.80;99.90;;;;;;5015529;28;20499;-85
2021/01/29 08:16:46;;;;;;;3.30;0.87;;;0.80;99.90;;;;;;5015310;28;20424;-86
2021/01/29 08:19:30;;;;;;;1.60;1.30;;;0.80;99.90;;;;;;5015459;28;20426;-86
2021/01/29 08:22:07;;;;;;;1.03;0.60;;;0.80;99.90;;;;;;5015509;28;20418;-86
2021/01/29 08:24:54;;;;;;;1.20;0.90;;;0.80;99.90;;;;;;5016147;28;20498;-86
2021/01/29 08:27:40;;;;;;;2.00;1.23;;;0.80;99.90;;;;;;5015950;28;20888;-86
2021/01/29 08:30:21;;;;;;;2.40;1.13;;;0.80;99.90;;;;;;5015216;28;20426;-85
2021/01/29 08:33:01;;;;;;;2.43;0.90;;;0.80;99.90;;;;;;5016279;28;20406;-85
2021/01/29 08:35:50;;;;;;;1.03;0.83;;;0.90;99.90;;;;;;5015542;28;20423;-85
2021/01/29 08:38:33;;;;;;;1.50;0.70;;;0.90;99.90;;;;;;5004955;28;20418;-86
2021/01/29 08:41:09;;;;;;;1.37;1.20;;;0.90;99.90;;;;;;5015982;28;20433;-88
2021/01/29 08:43:53;;;;;;;1.17;0.80;;;0.90;99.90;;;;;;5015641;28;20419;-87
2021/01/29 08:46:59;;;;;;;2.80;1.60;;;1.00;99.90;;;;;;5016652;28;20463;-88
2021/01/29 08:49:39;;;;;;;2.93;1.07;;;1.00;99.90;;;;;;4985175;28;20443;-86
2021/01/29 08:52:30;;;;;;;3.10;1.07;;;1.10;99.90;;;;;;5019830;28;20435;-85
2021/01/29 08:55:30;;;;;;;3.03;1.70;;;1.10;99.90;;;;;;5003183;28;20473;-86
2021/01/29 08:58:11;;;;;;;1.93;1.30;;;1.10;99.90;;;;;;5013584;28;20440;-87
2021/01/29 09:00:37;;;;;;;1.30;0.97;;;1.20;99.90;;;;;;5016183;28;20986;-88
2021/01/29 09:03:46;;;;;;;3.40;1.83;;;1.20;99.90;;;;;;5014933;28;20531;-87
2021/01/29 09:06:22;;;;;;;1.83;1.23;;;1.20;99.90;;;;;;4994575;28;20459;-89
2021/01/29 09:09:08;;;;;;;3.03;1.30;;;1.20;99.90;;;;;;4978687;28;20428;-88
2021/01/29 09:11:56;;;;;;;1.87;1.50;;;1.30;99.90;;;;;;5001460;28;20430;-89
2021/01/29 09:14:50;;;;;;;2.00;1.00;;;1.30;99.90;;;;;;5012248;28;20431;-84
2021/01/29 09:17:26;;;;;;;3.93;1.77;;;1.30;99.90;;;;;;5014451;28;20775;-85
2021/01/29 09:20:05;;;;;;;5.10;1.10;;;1.40;99.90;;;;;;5013270;28;20437;-85
2021/01/29 09:22:44;;;;;;;2.50;2.00;;;1.40;99.90;;;;;;5016284;28;20414;-84
2021/01/29 09:25:31;;;;;;;2.47;1.77;;;1.40;99.90;;;;;;5015212;28;20415;-85
2021/01/29 09:28:17;;;;;;;1.90;1.27;;;1.40;99.90;;;;;;5014191;28;20485;-85
2021/01/29 09:30:56;;;;;;;4.43;1.40;;;1.40;99.90;;;;;;5015411;28;20431;-85
2021/01/29 09:33:30;;;;;;;2.57;1.70;;;1.50;99.90;;;;;;5014867;28;20457;-85
2021/01/29 09:36:12;;;;;;;4.43;1.63;;;1.50;99.90;;;;;;5012979;28;20423;-84
2021/01/29 09:38:47;;;;;;;3.47;1.00;;;1.50;99.90;;;;;;5014681;28;20426;-85
2021/01/29 09:41:51;;;;;;;1.90;1.53;;;1.50;99.90;;;;;;5014500;28;20422;-85
2021/01/29 09:44:45;;;;;;;3.10;1.10;;;1.60;99.90;;;;;;5014897;28;20843;-85
2021/01/29 09:47:16;;;;;;;3.30;0.50;;;1.60;99.90;;;;;;5014904;28;20472;-84
2021/01/29 09:49:43;;;;;;;3.77;1.57;;;1.50;99.90;;;;;;5014111;28;20418;-87
2021/01/29 09:52:46;;;;;;;1.67;1.23;;;1.50;99.90;;;;;;5013984;28;20434;-84
2021/01/29 09:55:18;;;;;;;2.83;1.50;;;1.60;99.90;;;;;;5013533;28;20434;-84
2021/01/29 09:58:11;;;;;;;4.00;1.90;;;1.50;99.90;;;;;;5013230;28;20417;-84
2021/01/29 10:00:39;;;;;;;2.47;1.40;;;1.50;99.90;;;;;;5013448;28;20427;-84
2021/01/29 10:03:20;;;;;;;3.43;1.47;;;1.60;99.90;;;;;;5013345;28;20411;-84
2021/01/29 10:06:09;;;;;;;3.13;1.73;;;1.70;99.90;;;;;;5014943;28;20410;-84
2021/01/29 10:08:44;;;;;;;4.10;1.60;;;1.80;99.90;;;;;;5015867;28;20430;-87
2021/01/29 10:11:10;;;;;;;2.00;1.03;;;2.00;99.90;;;;;;5014868;28;20790;-88
2021/01/29 10:14:04;;;;;;;2.30;0.93;;;2.10;99.90;;;;;;5014243;28;20431;-85
2021/01/29 10:16:33;;;;;;;2.93;0.77;;;2.10;99.90;;;;;;5014007;28;20176;-89
2021/01/29 10:19:08;;;;;;;2.10;1.40;;;2.10;99.90;;;;;;5015742;28;20419;-86
2021/01/29 10:21:58;;;;;;;1.90;1.47;;;2.00;99.90;;;;;;5015627;28;20465;-85
2021/01/29 10:24:34;;;;;;;3.63;1.17;;;2.10;99.90;;;;;;5015505;28;20404;-86
2021/01/29 10:27:24;;;;;;;2.03;1.13;;;2.20;99.90;;;;;;5013488;28;20489;-86
2021/01/29 10:30:06;;;;;;;4.00;1.60;;;2.20;99.90;;;;;;5014502;28;20441;-85
2021/01/29 10:32:36;;;;;;;3.33;1.07;;;2.30;99.90;;;;;;5015319;28;20809;-88
2021/01/29 10:35:33;;;;;;;6.63;1.87;;;2.30;99.90;;;;;;5013525;28;20413;-89
2021/01/29 10:38:26;;;;;;;3.23;1.43;;;2.40;99.90;;;;;;5013808;28;20508;-87
2021/01/29 10:41:29;;;;;;;1.57;0.83;;;2.40;99.90;;;;;;5015060;28;20845;-87
2021/01/29 10:44:13;;;;;;;1.23;1.00;;;2.50;99.90;;;;;;5011355;28;20807;-89
2021/01/29 10:47:05;;;;;;;1.23;1.03;;;2.60;99.90;;;;;;4995288;28;20458;-87
2021/01/29 10:50:25;;;;;;;1.87;1.20;;;2.80;99.90;;;;;;4994653;28;20444;-86
2021/01/29 10:53:01;;;;;;;1.53;0.97;;;2.70;99.90;;;;;;4935117;29;20475;-87
2021/01/29 10:55:29;;;;;;;2.23;1.30;;;2.70;99.90;;;;;;4982284;28;20922;-87
2021/01/29 10:58:19;;;;;;;3.57;1.30;;;2.60;99.90;;;;;;4993435;28;20836;-88
2021/01/29 11:01:01;;;;;;;3.83;1.00;;;2.50;99.90;;;;;;4993570;28;20823;-88
2021/01/29 11:03:59;;;;;;;1.47;0.83;;;2.40;99.90;;;;;;4990340;28;20426;-87
2021/01/29 11:06:45;;;;;;;1.97;1.33;;;2.40;99.90;;;;;;4994391;28;20462;-88
2021/01/29 11:09:28;;;;;;;2.87;1.70;;;2.40;99.90;;;;;;5009573;28;20521;-87
2021/01/29 11:12:00;;;;;;;2.83;1.10;;;2.30;99.90;;;;;;4992436;28;20421;-88
2021/01/29 11:14:43;;;;;;;2.57;0.70;;;2.30;99.90;;;;;;5029155;28;20421;-89
2021/01/29 11:17:54;;;;;;;3.97;1.70;;;2.30;99.90;;;;;;5014148;28;20464;-86
2021/01/29 11:20:28;;;;;;;1.13;0.90;;;2.40;99.90;;;;;;4998720;28;20618;-85
2021/01/29 11:23:02;;;;;;;1.63;1.30;;;2.30;99.90;;;;;;5016239;28;20426;-85
2021/01/29 11:25:50;;;;;;;1.37;1.03;;;2.30;99.90;;;;;;5014188;28;20431;-88
2021/01/29 11:28:41;;;;;;;3.73;1.33;;;2.40;99.90;;;;;;5014446;28;20861;-88
2021/01/29 11:31:27;;;;;;;2.73;1.63;;;2.50;99.90;;;;;;5004677;28;20436;-87
2021/01/29 11:33:59;;;;;;;4.30;2.20;;;2.40;99.90;;;;;;5012826;28;20487;-88
2021/01/29 11:36:38;;;;;;;3.20;1.30;;;2.30;99.90;;;;;;5015638;28;20468;-89
2021/01/29 11:39:28;;;;;;;3.13;1.20;;;2.30;99.90;;;;;;5014602;28;20412;-89
2021/01/29 11:42:13;;;;;;;1.20;0.80;;;2.20;99.90;;;;;;5014381;28;20762;-89
2021/01/29 11:44:48;;;;;;;2.27;1.10;;;2.20;99.90;;;;;;5014248;28;20518;-85
2021/01/29 11:47:13;;;;;;;2.27;1.43;;;2.10;99.90;;;;;;5013086;28;20989;-88
2021/01/29 11:50:07;;;;;;;2.20;1.37;;;2.10;99.90;;;;;;5011364;28;20437;-86
2021/01/29 11:52:40;;;;;;;2.43;1.53;;;2.10;99.90;;;;;;5014306;28;20656;-90
2021/01/29 11:55:19;;;;;;;2.37;1.10;;;2.10;99.90;;;;;;5005827;28;20510;-88
2021/01/29 11:57:48;;;;;;;2.50;0.80;;;2.10;99.90;;;;;;5003436;28;20409;-89
2021/01/29 12:00:26;;;;;;;2.40;0.97;;;2.10;99.90;;;;;;5001794;28;20453;-85
2021/01/29 12:03:30;;;;;;;2.07;1.57;;;2.20;99.90;;;;;;5004822;28;20426;-87
2021/01/29 12:06:03;;;;;;;1.93;1.07;;;2.20;99.90;;;;;;5004062;28;20420;-86
2021/01/29 12:08:33;;;;;;;2.27;0.63;;;2.20;99.90;;;;;;4995914;28;20519;-89
2021/01/29 12:11:21;;;;;;;2.03;0.90;;;2.20;99.90;;;;;;5002309;28;20476;-85
2021/01/29 12:13:56;;;;;;;2.70;1.10;;;2.10;99.90;;;;;;4998756;28;20915;-87
2021/01/29 12:16:26;;;;;;;1.83;0.97;;;2.10;99.90;;;;;;4998331;28;20498;-88
2021/01/29 12:18:54;;;;;;;1.10;0.93;;;2.10;99.90;;;;;;5003950;28;20999;-88
2021/01/29 12:21:41;;;;;;;1.20;0.80;;;2.00;99.90;;;;;;5004327;28;20441;-88
2021/01/29 12:25:01;;;;;;;2.83;0.87;;;2.00;99.90;;;;;;5023234;28;20541;-88
2021/01/29 12:27:45;;;;;;;3.80;1.20;;;1.90;99.90;;;;;;4933964;29;20477;-88
2021/01/29 12:30:30;;;;;;;1.43;0.50;;;1.80;99.90;;;;;;5003602;28;20490;-88
2021/01/29 12:33:14;;;;;;;1.53;0.70;;;1.70;99.90;;;;;;5008890;28;20530;-89
2021/01/29 12:35:45;;;;;;;1.60;0.53;;;1.70;99.90;;;;;;4997045;28;20419;-84
2021/01/29 12:38:29;;;;;;;1.93;0.80;;;1.50;99.90;;;;;;5018366;28;20423;-81
2021/01/29 12:41:03;;;;;;;1.17;1.00;;;1.50;99.90;;;;;;5025767;28;20468;-83
2021/01/29 12:43:55;;;;;;;2.33;0.80;;;1.40;99.90;;;;;;4999349;28;20804;-85
2021/01/29 12:46:32;;;;;;;1.23;0.90;;;1.30;99.90;;;;;;5002037;28;20780;-87
2021/01/29 12:49:09;;;;;;;1.40;1.10;;;1.30;99.90;;;;;;5003901;28;20424;-86
2021/01/29 12:51:53;;;;;;;1.37;0.90;;;1.30;99.90;;;;;;5002083;28;20833;-85
2021/01/29 12:54:27;;;;;;;1.80;0.90;;;1.30;99.90;;;;;;5005037;28;20639;-85
2021/01/29 12:56:56;;;;;;;1.93;1.27;;;1.40;99.90;;;;;;5005362;28;20783;-86
2021/01/29 12:59:43;;;;;;;1.63;0.80;;;1.40;99.90;;;;;;5003522;28;20410;-87
2021/01/29 13:02:27;;;;;;;1.23;0.87;;;1.30;99.90;;;;;;4992607;28;20433;-87
2021/01/29 13:05:39;;;;;;;1.53;1.43;;;1.20;99.90;;;;;;5003247;28;20494;-84
2021/01/29 13:08:50;;;;;;;1.03;0.93;;;1.30;99.90;;;;;;4991516;28;20565;-85
2021/01/29 13:11:36;;;;;;;4.40;1.17;;;1.30;99.90;;;;;;4965191;28;20454;-85
2021/01/29 13:14:23;;;;;;;1.70;0.90;;;1.30;99.90;;;;;;5003575;28;20457;-83
2021/01/29 13:17:20;;;;;;;2.90;1.40;;;1.30;99.90;;;;;;5025794;28;20796;-85
2021/01/29 13:19:55;;;;;;;2.20;0.83;;;1.20;99.90;;;;;;5003654;28;20414;-83
2021/01/29 13:22:37;;;;;;;4.00;0.60;;;1.20;99.90;;;;;;5001213;28;20418;-84
2021/01/29 13:25:09;;;;;;;2.73;0.93;;;1.20;99.90;;;;;;5001525;28;20482;-86
2021/01/29 13:27:44;;;;;;;2.07;1.37;;;1.10;99.90;;;;;;5003598;28;20479;-83
2021/01/29 13:30:25;;;;;;;4.27;1.60;;;1.00;99.90;;;;;;5008495;28;20471;-86
2021/01/29 13:32:52;;;;;;;2.57;1.33;;;0.90;99.90;;;;;;5002990;28;20819;-86
2021/01/29 13:35:34;;;;;;;1.53;1.23;;;0.90;99.90;;;;;;5010223;28;20755;-84
2021/01/29 13:38:28;;;;;;;4.33;0.93;;;0.90;99.90;;;;;;5005502;28;20418;-84
2021/01/29 13:41:05;;;;;;;1.30;1.20;;;0.90;99.90;;;;;;5005193;28;20411;-84
2021/01/29 13:43:32;;;;;;;3.60;0.70;;;0.90;99.90;;;;;;5007686;28;20415;-84
2021/01/29 13:46:04;;;;;;;1.53;0.97;;;1.00;99.90;;;;;;4999086;28;20911;-84
2021/01/29 13:48:31;;;;;;;1.90;1.20;;;0.90;99.90;;;;;;4987648;28;20478;-85
2021/01/29 13:51:00;;;;;;;2.83;2.23;;;0.90;99.90;;;;;;5007670;28;20432;-85
2021/01/29 13:53:29;;;;;;;1.60;1.10;;;0.90;99.90;;;;;;5012368;28;20431;-88
2021/01/29 13:56:00;;;;;;;4.33;1.37;;;0.90;99.90;;;;;;5005215;28;20818;-84
2021/01/29 13:58:42;;;;;;;2.33;1.33;;;;;;;;;;5005443;28;20817;-85
2021/01/29 14:01:18;;;;;;;4.40;1.90;;;0.80;99.90;;;;;;5004525;28;20783;-85
2021/01/29 14:03:55;;;;;;;1.90;1.47;;;0.70;99.90;;;;;;5003216;28;20407;-84
2021/01/29 14:06:28;;;;;;;3.70;1.37;;;0.60;99.90;;;;;;5002470;28;20462;-81
2021/01/29 14:08:54;;;;;;;2.60;1.40;;;0.60;99.90;;;;;;5001541;28;20784;-82
2021/01/29 14:11:31;;;;;;;1.87;1.40;;;0.60;99.90;;;;;;5018460;28;20498;-81
2021/01/29 14:14:17;;;;;;;2.00;1.23;;;0.60;99.90;;;;;;5002143;28;20169;-81